createdAt,value
2022-12-11T00:01:18.477Z,100000.61
2022-12-11T00:03:48.090Z,100002.27
2022-12-11T00:06:18.903Z,100002.23
2022-12-11T00:08:47.691Z,99999.10
2022-12-11T00:11:17.095Z,99997.86
2022-12-11T00:13:46.771Z,99993.80
2022-12-11T00:16:15.656Z,99993.50
2022-12-11T00:18:44.448Z,99989.30
2022-12-11T00:21:14.466Z,99985.36
2022-12-11T00:23:43.341Z,99980.25
2022-12-11T00:26:15.362Z,99979.02
2022-12-11T00:28:45.237Z,99975.05
2022-12-11T00:31:18.990Z,99977.73
2022-12-11T00:33:51.266Z,99972.86
2022-12-11T00:36:25.261Z,99972.16
2022-12-11T00:38:54.299Z,99966.84
2022-12-11T00:41:22.940Z,99969.69
2022-12-11T00:43:51.579Z,99967.78
2022-12-11T00:46:19.997Z,99973.73
2022-12-11T00:48:49.824Z,99974.19
2022-12-11T00:51:18.260Z,99980.02
2022-12-11T00:53:46.987Z,99972.59
2022-12-11T00:56:18.813Z,99972.23
2022-12-11T00:58:48.585Z,99971.77
2022-12-11T01:01:21.632Z,99968.80
2022-12-11T01:03:51.083Z,99968.48
2022-12-11T01:06:23.530Z,99968.39
2022-12-11T01:09:12.310Z,99971.59
2022-12-11T01:11:42.504Z,99972.16
2022-12-11T01:14:11.631Z,99973.00
2022-12-11T01:16:40.258Z,99972.14
2022-12-11T01:19:08.988Z,99972.16
2022-12-11T01:21:37.279Z,99976.73
2022-12-11T01:24:05.881Z,99974.86
2022-12-11T01:26:34.457Z,99971.51
2022-12-11T01:29:02.830Z,99967.13
2022-12-11T01:31:31.225Z,99973.20
2022-12-11T01:33:59.735Z,99974.67
2022-12-11T01:36:28.038Z,99977.77
2022-12-11T01:38:56.433Z,99976.61
2022-12-11T01:41:25.214Z,99969.08
2022-12-11T01:44:29.292Z,99965.96
2022-12-11T01:46:58.369Z,99966.40
2022-12-11T01:49:28.816Z,99969.02
2022-12-11T01:52:11.902Z,99963.46
2022-12-11T01:54:41.446Z,99962.39
2022-12-11T01:57:11.687Z,99959.25
2022-12-11T01:59:44.647Z,99962.83
2022-12-11T02:02:31.684Z,99964.18
2022-12-11T02:05:02.497Z,99967.63
2022-12-11T02:07:39.122Z,99972.09
2022-12-11T02:10:10.168Z,99970.81
2022-12-11T02:12:55.808Z,99966.74
2022-12-11T02:16:07.881Z,99960.22
2022-12-11T02:18:42.622Z,99958.64
2022-12-11T02:21:20.636Z,99954.23
2022-12-11T02:24:07.291Z,99954.48
2022-12-11T02:26:59.873Z,99954.23
2022-12-11T02:29:52.522Z,99950.40
2022-12-11T02:32:49.105Z,99951.41
2022-12-11T02:35:37.914Z,99954.41
2022-12-11T02:38:12.923Z,99949.96
2022-12-11T02:40:43.672Z,99947.36
2022-12-11T02:43:16.348Z,99948.90
2022-12-11T02:45:46.712Z,99943.27
2022-12-11T02:48:17.686Z,99942.54
2022-12-11T02:50:51.028Z,99941.73
2022-12-11T02:53:24.719Z,99939.30
2022-12-11T02:56:00.609Z,99939.33
2022-12-11T02:58:32.721Z,99943.95
2022-12-11T03:01:01.283Z,99940.83
2022-12-11T03:03:30.760Z,99943.70
2022-12-11T03:05:59.157Z,99943.95
2022-12-11T03:08:27.561Z,99950.18
2022-12-11T03:10:55.954Z,99951.39
2022-12-11T03:13:24.323Z,99943.64
2022-12-11T03:16:12.356Z,99943.52
2022-12-11T03:18:52.865Z,99948.48
2022-12-11T03:21:32.502Z,99952.48
2022-12-11T03:24:24.176Z,99948.44
2022-12-11T03:27:06.818Z,99951.01
2022-12-11T03:29:47.215Z,99949.54
2022-12-11T03:32:23.014Z,99948.09
2022-12-11T03:35:03.213Z,99955.16
2022-12-11T03:37:37.773Z,99957.89
2022-12-11T03:40:12.395Z,99957.21
2022-12-11T03:42:44.542Z,99959.64
2022-12-11T03:45:14.551Z,99960.84
2022-12-11T03:47:44.457Z,99959.23
2022-12-11T03:50:15.247Z,99951.86
2022-12-11T03:52:46.812Z,99950.03
2022-12-11T03:55:18.787Z,99948.91
2022-12-11T03:57:47.248Z,99947.83
2022-12-11T04:00:20.100Z,99951.73
2022-12-11T04:03:13.287Z,99946.67
2022-12-11T04:05:45.220Z,99944.34
2022-12-11T04:08:14.478Z,99943.65
2022-12-11T04:10:43.392Z,99944.36
2022-12-11T04:13:12.008Z,99947.20
2022-12-11T04:15:40.606Z,99950.15
2022-12-11T04:18:28.774Z,99945.39
2022-12-11T04:21:15.958Z,99948.08
2022-12-11T04:24:02.803Z,99945.20
2022-12-11T04:26:31.109Z,99947.39
2022-12-11T04:28:59.410Z,99936.15
2022-12-11T04:31:30.057Z,99935.75
2022-12-11T04:33:58.587Z,99936.17
2022-12-11T04:36:26.958Z,99929.86
2022-12-11T04:38:55.317Z,99928.63
2022-12-11T04:41:23.631Z,99918.56
2022-12-11T04:43:52.014Z,99921.39
2022-12-11T04:46:23.278Z,99901.96
2022-12-11T04:48:57.278Z,99915.95
2022-12-11T04:51:27.897Z,99911.02
2022-12-11T04:53:56.233Z,99904.29
2022-12-11T04:56:24.546Z,99908.50
2022-12-11T04:58:52.837Z,99905.65
2022-12-11T05:01:22.711Z,99904.69
2022-12-11T05:03:51.163Z,99902.44
2022-12-11T05:06:19.651Z,99898.95
2022-12-11T05:08:48.011Z,99894.45
2022-12-11T05:11:17.484Z,99887.77
2022-12-11T05:13:45.942Z,99886.70
2022-12-11T05:16:16.954Z,99883.70
2022-12-11T05:18:45.540Z,99886.36
2022-12-11T05:21:15.914Z,99884.88
2022-12-11T05:23:44.454Z,99878.96
2022-12-11T05:26:15.830Z,99871.35
2022-12-11T05:28:45.039Z,99868.20
2022-12-11T05:31:17.259Z,99871.08
2022-12-11T05:33:47.025Z,99861.89
2022-12-11T05:36:19.738Z,99862.64
2022-12-11T05:38:48.554Z,99861.14
2022-12-11T05:41:19.631Z,99857.95
2022-12-11T05:43:48.437Z,99863.98
2022-12-11T05:46:22.963Z,99867.77
2022-12-11T05:48:55.699Z,99866.33
2022-12-11T05:51:24.281Z,99866.93
2022-12-11T05:53:53.875Z,99865.89
2022-12-11T05:56:26.355Z,99868.46
2022-12-11T05:58:55.778Z,99866.88
2022-12-11T06:01:33.745Z,99870.35
2022-12-11T06:04:02.898Z,99875.20
2022-12-11T06:06:31.756Z,99875.69
2022-12-11T06:09:01.204Z,99868.64
2022-12-11T06:11:31.594Z,99874.52
2022-12-11T06:14:02.414Z,99877.80
2022-12-11T06:16:31.717Z,99875.34
2022-12-11T06:19:00.150Z,99873.70
2022-12-11T06:21:31.333Z,99879.55
2022-12-11T06:24:02.679Z,99878.67
2022-12-11T06:26:32.191Z,99876.95
2022-12-11T06:29:00.808Z,99877.64
2022-12-11T06:31:29.154Z,99873.25
2022-12-11T06:33:58.087Z,99870.27
2022-12-11T06:36:26.484Z,99870.74
2022-12-11T06:38:55.487Z,99870.82
2022-12-11T06:41:23.795Z,99876.69
2022-12-11T06:43:51.745Z,99871.20
2022-12-11T06:46:20.539Z,99864.80
2022-12-11T06:48:49.549Z,99866.09
2022-12-11T06:51:21.694Z,99865.67
2022-12-11T06:53:57.171Z,99865.13
2022-12-11T06:56:25.403Z,99865.00
2022-12-11T06:58:53.316Z,99866.91
2022-12-11T07:01:28.298Z,99865.79
2022-12-11T07:03:59.024Z,99868.30
2022-12-11T07:06:29.111Z,99864.77
2022-12-11T07:08:57.266Z,99862.46
2022-12-11T07:11:25.231Z,99862.33
2022-12-11T07:13:53.194Z,99861.48
2022-12-11T07:16:21.459Z,99861.94
2022-12-11T07:18:51.281Z,99866.46
2022-12-11T07:21:21.130Z,99871.69
2022-12-11T07:23:50.379Z,99874.72
2022-12-11T07:26:22.125Z,99882.81
2022-12-11T07:28:50.325Z,99890.60
2022-12-11T07:31:22.200Z,99891.45
2022-12-11T07:34:08.498Z,99894.36
2022-12-11T07:36:36.507Z,99893.97
2022-12-11T07:39:04.504Z,99893.33
2022-12-11T07:41:32.385Z,99899.95
2022-12-11T07:44:01.411Z,99891.09
2022-12-11T07:46:32.405Z,99886.10
2022-12-11T07:49:01.348Z,99882.55
2022-12-11T07:51:35.748Z,99885.17
2022-12-11T07:54:16.822Z,99890.11
2022-12-11T07:56:52.812Z,99899.59
2022-12-11T07:59:21.686Z,99905.70
2022-12-11T08:01:49.669Z,99904.61
2022-12-11T08:04:17.573Z,99901.40
2022-12-11T08:06:45.693Z,99893.20
2022-12-11T08:09:20.895Z,99895.61
2022-12-11T08:11:51.192Z,99897.19
2022-12-11T08:14:19.922Z,99895.29
2022-12-11T08:16:49.004Z,99891.00
2022-12-11T08:19:18.016Z,99890.05
2022-12-11T08:21:46.856Z,99894.27
2022-12-11T08:24:20.070Z,99895.77
2022-12-11T08:26:48.637Z,99897.14
2022-12-11T08:29:16.524Z,99892.20
2022-12-11T08:31:44.779Z,99882.23
2022-12-11T08:34:14.214Z,99867.36
2022-12-11T08:36:42.250Z,99859.88
2022-12-11T08:39:10.098Z,99858.79
2022-12-11T08:41:38.841Z,99854.30
2022-12-11T08:44:16.859Z,99853.80
2022-12-11T08:46:45.807Z,99860.10
2022-12-11T08:49:13.748Z,99857.55
2022-12-11T08:51:41.692Z,99857.16
2022-12-11T08:54:10.966Z,99860.35
2022-12-11T08:56:39.006Z,99859.61
2022-12-11T08:59:07.230Z,99864.27
2022-12-11T09:01:35.255Z,99869.88
2022-12-11T09:04:03.487Z,99867.77
2022-12-11T09:06:33.346Z,99873.77
2022-12-11T09:09:02.629Z,99869.27
2022-12-11T09:11:35.538Z,99870.86
2022-12-11T09:14:07.575Z,99868.45
2022-12-11T09:16:40.490Z,99864.77
2022-12-11T09:19:14.121Z,99862.52
2022-12-11T09:21:43.822Z,99862.88
2022-12-11T09:24:13.449Z,99860.13
2022-12-11T09:26:42.129Z,99850.77
2022-12-11T09:29:12.000Z,99849.35
2022-12-11T09:31:40.413Z,99848.88
2022-12-11T09:34:12.426Z,99841.42
2022-12-11T09:36:44.057Z,99840.89
2022-12-11T09:39:14.405Z,99838.13
2022-12-11T09:42:30.612Z,99834.70
2022-12-11T09:45:02.974Z,99834.54
2022-12-11T09:47:49.647Z,99836.69
2022-12-11T09:50:31.270Z,99834.39
2022-12-11T09:53:30.985Z,99831.70
2022-12-11T09:56:36.558Z,99829.20
2022-12-11T09:59:28.943Z,99820.98
2022-12-11T10:02:30.406Z,99822.09
2022-12-11T10:05:26.529Z,99821.73
2022-12-11T10:08:24.231Z,99815.73
2022-12-11T10:11:30.124Z,99808.40
2022-12-11T10:14:26.246Z,99798.60
2022-12-11T10:17:25.688Z,99797.42
2022-12-11T10:19:57.328Z,99796.98
2022-12-11T10:22:31.949Z,99794.85
2022-12-11T10:25:11.120Z,99798.45
2022-12-11T10:27:41.310Z,99796.10
2022-12-11T10:30:23.251Z,99790.80
2022-12-11T10:33:13.593Z,99779.98
2022-12-11T10:35:48.150Z,99776.05
2022-12-11T10:38:27.515Z,99773.98
2022-12-11T10:41:01.098Z,99777.19
2022-12-11T10:43:41.439Z,99772.55
2022-12-11T10:46:26.088Z,99778.10
2022-12-11T10:48:58.051Z,99774.57
2022-12-11T10:51:37.503Z,99772.02
2022-12-11T10:54:31.001Z,99761.58
2022-12-11T10:57:01.870Z,99757.66
2022-12-11T11:00:00.214Z,99747.23
2022-12-11T11:02:35.974Z,99747.91
2022-12-11T11:05:37.451Z,99740.55
2022-12-11T11:08:16.203Z,99733.32
2022-12-11T11:11:01.718Z,99727.30
2022-12-11T11:13:31.947Z,99723.70
2022-12-11T11:16:06.869Z,99719.10
2022-12-11T11:18:35.043Z,99717.52
2022-12-11T11:21:03.444Z,99710.52
2022-12-11T11:23:31.507Z,99713.73
2022-12-11T11:26:07.753Z,99711.85
2022-12-11T11:28:42.600Z,99710.08
2022-12-11T11:31:14.552Z,99710.05
2022-12-11T11:34:10.380Z,99710.05
2022-12-11T11:36:38.640Z,99715.56
2022-12-11T11:39:27.517Z,99707.44
2022-12-11T11:42:20.886Z,99708.65
2022-12-11T11:45:30.888Z,99709.23
2022-12-11T11:48:11.444Z,99704.37
2022-12-11T11:50:45.556Z,99713.48
2022-12-11T11:53:27.225Z,99710.77
2022-12-11T11:56:17.257Z,99707.39
2022-12-11T11:59:03.064Z,99702.92
2022-12-11T12:01:33.570Z,99701.63
2022-12-11T12:04:04.250Z,99693.52
2022-12-11T12:07:14.237Z,99686.02
2022-12-11T12:09:57.514Z,99685.38
2022-12-11T12:13:48.985Z,99684.33
2022-12-11T12:17:03.933Z,99680.42
2022-12-11T12:19:53.613Z,99676.05
2022-12-11T12:22:55.995Z,99674.80
2022-12-11T12:26:08.532Z,99673.18
2022-12-11T12:29:14.856Z,99671.95
2022-12-11T12:32:09.657Z,99669.20
2022-12-11T12:34:48.556Z,99669.20
2022-12-11T12:37:25.517Z,99667.77
2022-12-11T12:40:15.157Z,99666.10
2022-12-11T12:43:34.602Z,99663.40
2022-12-11T12:46:23.668Z,99659.42
2022-12-11T12:48:54.514Z,99659.45
2022-12-11T12:51:23.230Z,99657.44
2022-12-11T12:54:00.938Z,99650.42
2022-12-11T12:56:34.809Z,99651.05
2022-12-11T12:59:03.070Z,99652.91
2022-12-11T13:01:33.300Z,99653.30
2022-12-11T13:04:10.645Z,99648.34
2022-12-11T13:06:50.391Z,99647.38
2022-12-11T13:09:23.860Z,99649.73
2022-12-11T13:11:57.984Z,99649.70
2022-12-11T13:14:33.800Z,99647.84
2022-12-11T13:17:21.224Z,99645.98
2022-12-11T13:19:53.287Z,99648.15
2022-12-11T13:22:24.692Z,99648.45
2022-12-11T13:24:52.599Z,99649.48
2022-12-11T13:27:46.510Z,99650.90
2022-12-11T13:30:14.340Z,99645.66
2022-12-11T13:33:05.413Z,99647.23
2022-12-11T13:35:35.413Z,99648.12
2022-12-11T13:38:15.193Z,99643.30
2022-12-11T13:40:45.341Z,99646.11
2022-12-11T13:43:22.626Z,99638.81
2022-12-11T13:45:55.882Z,99641.00
2022-12-11T13:48:36.903Z,99640.52
2022-12-11T13:51:06.782Z,99639.40
2022-12-11T13:53:34.851Z,99638.32
2022-12-11T13:56:16.749Z,99642.50
2022-12-11T13:58:45.535Z,99640.45
2022-12-11T14:01:27.797Z,99639.31
2022-12-11T14:04:23.843Z,99638.07
2022-12-11T14:06:52.026Z,99635.21
2022-12-11T14:09:26.302Z,99633.63
2022-12-11T14:11:57.340Z,99633.13
2022-12-11T14:14:43.432Z,99631.11
2022-12-11T14:17:18.157Z,99633.88
2022-12-11T14:19:48.715Z,99638.77
2022-12-11T14:22:24.472Z,99640.27
2022-12-11T14:24:56.601Z,99635.80
2022-12-11T14:27:27.037Z,99631.91
2022-12-11T14:29:55.821Z,99641.39
2022-12-11T14:32:47.453Z,99639.87
2022-12-11T14:35:43.751Z,99637.52
2022-12-11T14:38:33.747Z,99637.29
2022-12-11T14:41:23.748Z,99639.13
2022-12-11T14:43:57.492Z,99633.55
2022-12-11T14:46:47.404Z,99634.60
2022-12-11T14:49:49.408Z,99634.88
2022-12-11T14:52:32.677Z,99634.33
2022-12-11T14:55:25.043Z,99637.10
2022-12-11T14:58:02.877Z,99638.41
2022-12-11T15:00:37.478Z,99637.59
2022-12-11T15:03:17.859Z,99636.39
2022-12-11T15:05:54.892Z,99633.27
2022-12-11T15:08:30.235Z,99637.86
2022-12-11T15:11:12.097Z,99639.59
2022-12-11T15:14:02.790Z,99644.44
2022-12-11T15:16:39.566Z,99641.25
2022-12-11T15:19:18.958Z,99641.30
2022-12-11T15:21:47.555Z,99638.02
2022-12-11T15:24:27.933Z,99629.80
2022-12-11T15:27:01.164Z,99625.71
2022-12-11T15:29:38.853Z,99633.05
2022-12-11T15:32:09.922Z,99632.95
2022-12-11T15:34:46.918Z,99632.04
2022-12-11T15:37:30.715Z,99625.61
2022-12-11T15:40:02.864Z,99623.17
2022-12-11T15:42:45.224Z,99624.56
2022-12-11T15:45:20.258Z,99625.02
2022-12-11T15:47:50.174Z,99629.19
2022-12-11T15:50:24.833Z,99629.41
2022-12-11T15:52:55.433Z,99630.83
2022-12-11T15:55:27.140Z,99631.53
2022-12-11T15:58:00.262Z,99631.39
2022-12-11T16:00:28.499Z,99624.85
2022-12-11T16:02:57.609Z,99626.21
2022-12-11T16:05:26.798Z,99630.23
2022-12-11T16:07:59.170Z,99627.36
2022-12-11T16:10:27.343Z,99627.13
2022-12-11T16:12:59.433Z,99628.91
2022-12-11T16:15:29.795Z,99626.41
2022-12-11T16:18:11.374Z,99625.80
2022-12-11T16:20:40.983Z,99626.98
2022-12-11T16:23:10.898Z,99625.88
2022-12-11T16:25:42.032Z,99620.66
2022-12-11T16:28:12.956Z,99620.89
2022-12-11T16:30:43.318Z,99612.81
2022-12-11T16:33:13.370Z,99610.32
2022-12-11T16:35:43.069Z,99607.90
2022-12-11T16:38:11.619Z,99606.41
2022-12-11T16:40:41.326Z,99612.27
2022-12-11T16:43:10.906Z,99614.65
2022-12-11T16:45:38.829Z,99612.57
2022-12-11T16:48:06.828Z,99611.80
2022-12-11T16:50:36.213Z,99612.48
2022-12-11T16:53:04.197Z,99616.83
2022-12-11T16:55:32.082Z,99616.16
2022-12-11T16:58:00.107Z,99611.65
2022-12-11T17:00:28.067Z,99610.39
2022-12-11T17:02:58.903Z,99611.09
2022-12-11T17:05:29.184Z,99615.19
2022-12-11T17:07:58.363Z,99616.25
2022-12-11T17:10:26.509Z,99616.45
2022-12-11T17:12:54.910Z,99620.11
2022-12-11T17:15:23.008Z,99620.36
2022-12-11T17:17:50.940Z,99621.84
2022-12-11T17:20:20.069Z,99619.05
2022-12-11T17:22:48.111Z,99616.45
2022-12-11T17:25:22.210Z,99614.39
2022-12-11T17:27:50.464Z,99608.70
2022-12-11T17:30:18.408Z,99610.90
2022-12-11T17:32:49.518Z,99613.36
2022-12-11T17:35:17.637Z,99613.66
2022-12-11T17:37:45.984Z,99616.52
2022-12-11T17:40:14.086Z,99613.61
2022-12-11T17:42:45.078Z,99615.27
2022-12-11T17:45:13.411Z,99614.61
2022-12-11T17:47:42.765Z,99615.08
2022-12-11T17:50:20.625Z,99613.33
2022-12-11T17:52:49.205Z,99619.27
2022-12-11T17:55:17.368Z,99621.15
2022-12-11T17:57:45.870Z,99620.96
2022-12-11T18:00:15.542Z,99625.61
2022-12-11T18:02:43.511Z,99627.85
2022-12-11T18:05:12.184Z,99629.30
2022-12-11T18:07:40.839Z,99636.11
2022-12-11T18:10:09.213Z,99633.15
2022-12-11T18:12:37.556Z,99627.73
2022-12-11T18:15:06.274Z,99628.66
2022-12-11T18:17:35.247Z,99629.38
2022-12-11T18:20:04.923Z,99627.02
2022-12-11T18:22:32.976Z,99627.56
2022-12-11T18:25:03.941Z,99630.23
2022-12-11T18:28:44.774Z,99634.06
2022-12-11T18:31:30.210Z,99625.70
2022-12-11T18:33:58.189Z,99625.14
2022-12-11T18:36:26.646Z,99624.64
2022-12-11T18:38:54.752Z,99626.30
2022-12-11T18:41:22.690Z,99628.33
2022-12-11T18:43:50.551Z,99626.15
2022-12-11T18:46:21.434Z,99627.77
2022-12-11T18:48:50.758Z,99627.05
2022-12-11T18:51:24.700Z,99628.44
2022-12-11T18:53:53.523Z,99629.71
2022-12-11T18:56:23.617Z,99624.68
2022-12-11T18:58:52.336Z,99626.55
2022-12-11T19:01:30.788Z,99624.08
2022-12-11T19:04:36.114Z,99622.51
2022-12-11T19:07:04.189Z,99614.16
2022-12-11T19:09:37.772Z,99615.80
2022-12-11T19:12:06.599Z,99620.27
2022-12-11T19:14:34.591Z,99618.45
2022-12-11T19:17:03.296Z,99620.77
2022-12-11T19:19:31.453Z,99623.45
2022-12-11T19:21:59.396Z,99624.30
2022-12-11T19:24:28.234Z,99625.70
2022-12-11T19:35:29.117Z,99619.23
2022-12-11T19:37:59.419Z,99619.70
2022-12-11T19:41:02.780Z,99621.64
2022-12-11T19:44:19.330Z,99621.81
2022-12-11T19:48:50.149Z,99611.11
2022-12-11T19:51:28.816Z,99622.13
2022-12-11T19:54:07.618Z,99622.75
2022-12-11T19:57:15.975Z,99627.13
2022-12-11T19:59:59.329Z,99624.09
2022-12-11T20:02:29.830Z,99624.36
2022-12-11T20:05:12.451Z,99608.14
2022-12-11T20:09:12.201Z,99619.52
2022-12-11T20:12:47.281Z,99619.80
2022-12-11T20:18:48.100Z,99618.39
2022-12-11T20:22:25.286Z,99617.68
2022-12-11T20:40:17.525Z,99601.61
2022-12-11T20:42:50.238Z,99599.95
2022-12-11T20:45:18.577Z,99602.12
2022-12-11T20:47:48.291Z,99600.32
2022-12-11T20:50:21.659Z,99596.75
2022-12-11T20:52:51.258Z,99596.08
2022-12-11T20:55:31.139Z,99598.61
2022-12-11T20:58:14.230Z,99590.40
2022-12-11T21:00:52.821Z,99592.89
2022-12-11T21:03:42.175Z,99592.59
2022-12-11T21:06:23.069Z,99589.30
2022-12-11T21:08:52.332Z,99583.66
2022-12-11T21:11:24.199Z,99570.82
2022-12-11T21:13:53.871Z,99585.95
2022-12-11T21:16:24.600Z,99585.17
2022-12-11T21:18:52.596Z,99586.25
2022-12-11T21:21:21.192Z,99586.98
2022-12-11T21:23:50.748Z,99587.54
2022-12-11T21:26:21.361Z,99590.63
2022-12-11T21:28:53.178Z,99593.86
2022-12-11T21:31:21.424Z,99591.06
2022-12-11T21:33:49.519Z,99592.55
2022-12-11T21:36:17.930Z,99592.37
2022-12-11T21:38:47.597Z,99593.90
2022-12-11T21:41:25.758Z,99594.70
2022-12-11T21:45:21.222Z,99595.39
2022-12-11T21:46:44.945Z,99591.74
2022-12-11T21:49:15.175Z,99593.02
2022-12-11T21:51:47.155Z,99591.35
2022-12-11T21:54:18.739Z,99590.29
2022-12-11T21:56:47.236Z,99586.31
2022-12-11T21:59:15.289Z,99592.85
2022-12-11T22:01:46.101Z,99592.88
2022-12-11T22:04:15.502Z,99589.48
2022-12-11T22:06:46.747Z,99587.88
2022-12-11T22:09:16.324Z,99586.52
2022-12-11T22:11:46.026Z,99591.27
2022-12-11T22:14:18.224Z,99585.98
2022-12-11T22:16:46.619Z,99592.29
2022-12-11T22:19:14.700Z,99591.13
2022-12-11T22:21:42.901Z,99593.14
2022-12-11T22:24:11.038Z,99594.48
2022-12-11T22:26:39.171Z,99588.12
2022-12-11T22:29:07.320Z,99590.70
2022-12-11T22:31:35.274Z,99584.43
2022-12-11T22:34:03.254Z,99583.80
2022-12-11T22:36:31.220Z,99582.38
2022-12-11T22:39:00.207Z,99586.05
2022-12-11T22:41:32.554Z,99586.58
2022-12-11T22:44:00.672Z,99587.28
2022-12-11T22:46:30.869Z,99586.73
2022-12-11T22:48:59.322Z,99586.25
2022-12-11T22:51:27.636Z,99590.78
2022-12-11T22:53:55.852Z,99588.51
2022-12-11T22:56:24.546Z,99586.03
2022-12-11T22:58:52.496Z,99589.11
2022-12-11T23:01:23.677Z,99592.95
2022-12-11T23:03:52.495Z,99589.40
2022-12-11T23:06:24.830Z,99587.03
2022-12-11T23:08:55.326Z,99592.04
2022-12-11T23:11:32.233Z,99592.02
2022-12-11T23:14:00.735Z,99590.94
2022-12-11T23:16:29.093Z,99591.64
2022-12-11T23:18:58.404Z,99589.70
2022-12-11T23:21:28.591Z,99589.59
2022-12-11T23:23:58.456Z,99590.09
2022-12-11T23:26:28.462Z,99590.71
2022-12-11T23:28:58.780Z,99586.70
2022-12-11T23:31:30.242Z,99596.21
2022-12-11T23:33:59.148Z,99591.96
2022-12-11T23:36:29.065Z,99591.40
2022-12-11T23:38:57.335Z,99590.73
2022-12-11T23:41:25.478Z,99589.15
2022-12-11T23:43:53.585Z,99586.83
2022-12-11T23:46:24.425Z,99582.45
2022-12-11T23:48:54.443Z,99585.86
2022-12-11T23:51:25.423Z,99586.25
2022-12-11T23:53:54.224Z,99588.70
2022-12-11T23:56:28.456Z,99587.59
2022-12-11T23:58:57.570Z,99586.98
